createdAt,value
2019-05-10T00:00:12.719Z,99.90
2019-05-10T00:03:00.332Z,99.90
2019-05-10T00:05:48.255Z,99.90
2019-05-10T00:08:35.728Z,99.90
2019-05-10T00:11:34.657Z,99.90
2019-05-10T00:14:33.987Z,99.90
2019-05-10T00:17:17.434Z,99.90
2019-05-10T00:19:46.720Z,99.90
2019-05-10T00:22:16.144Z,99.90
2019-05-10T00:25:00.737Z,99.90
2019-05-10T00:27:16.812Z,99.90
2019-05-10T00:29:46.297Z,99.90
2019-05-10T00:32:15.679Z,99.90
2019-05-10T00:34:45.057Z,99.90
2019-05-10T00:37:14.513Z,99.90
2019-05-10T00:39:44.336Z,99.90
2019-05-10T00:42:13.691Z,99.90
2019-05-10T00:44:42.992Z,99.90
2019-05-10T00:47:12.415Z,99.90
2019-05-10T00:49:41.768Z,99.90
2019-05-10T00:52:11.179Z,99.90
2019-05-10T00:54:40.608Z,99.90
2019-05-10T00:57:09.986Z,99.90
2019-05-10T00:59:39.258Z,99.90
2019-05-10T01:02:08.603Z,99.90
2019-05-10T01:04:38.006Z,99.90
2019-05-10T01:07:07.504Z,99.90
2019-05-10T01:09:36.976Z,99.90
2019-05-10T01:12:06.385Z,99.90
2019-05-10T01:14:35.807Z,99.90
2019-05-10T01:17:05.330Z,99.90
2019-05-10T01:19:34.780Z,99.90
2019-05-10T01:22:04.142Z,99.90
2019-05-10T01:24:33.712Z,99.90
2019-05-10T01:27:03.199Z,99.90
2019-05-10T01:29:32.582Z,99.90
2019-05-10T01:32:02.088Z,99.90
2019-05-10T01:34:31.600Z,99.90
2019-05-10T01:37:01.214Z,99.90
2019-05-10T01:39:30.591Z,99.90
2019-05-10T01:41:59.933Z,99.90
2019-05-10T01:44:29.315Z,99.90
2019-05-10T01:46:58.645Z,99.90
2019-05-10T01:49:27.980Z,99.90
2019-05-10T01:51:57.324Z,99.90
2019-05-10T01:54:26.659Z,99.90
2019-05-10T01:56:56.120Z,99.90
2019-05-10T01:59:25.407Z,99.90
2019-05-10T02:01:54.823Z,99.90
2019-05-10T02:04:24.078Z,99.90
2019-05-10T02:06:53.467Z,99.90
2019-05-10T02:09:23.598Z,99.90
2019-05-10T02:11:53.280Z,99.90
2019-05-10T02:14:22.709Z,99.90
2019-05-10T02:16:52.027Z,99.90
2019-05-10T02:19:21.420Z,99.90
2019-05-10T02:21:50.797Z,99.90
2019-05-10T02:24:20.273Z,99.90
2019-05-10T02:26:49.636Z,99.90
2019-05-10T02:29:19.131Z,99.90
2019-05-10T02:31:48.400Z,99.90
2019-05-10T02:34:17.784Z,99.90
2019-05-10T02:36:47.168Z,99.90
2019-05-10T02:39:16.501Z,99.90
2019-05-10T02:41:45.812Z,99.90
2019-05-10T02:44:15.289Z,99.90
2019-05-10T02:46:44.696Z,99.90
2019-05-10T02:49:14.067Z,99.90
2019-05-10T02:51:43.318Z,99.90
2019-05-10T02:54:12.599Z,99.90
2019-05-10T02:56:42.998Z,99.90
2019-05-10T02:59:14.170Z,99.90
2019-05-10T03:01:46.322Z,99.90
2019-05-10T03:04:15.789Z,99.90
2019-05-10T03:06:45.507Z,99.90
2019-05-10T03:09:14.871Z,99.90
2019-05-10T03:11:48.183Z,99.90
2019-05-10T03:14:19.367Z,99.90
2019-05-10T03:16:52.317Z,99.90
2019-05-10T03:19:22.346Z,99.90
2019-05-10T03:22:06.110Z,99.90
2019-05-10T03:24:35.640Z,99.90
2019-05-10T03:27:05.085Z,99.90
2019-05-10T03:29:34.561Z,99.90
2019-05-10T03:32:03.993Z,99.90
2019-05-10T03:34:33.501Z,99.90
2019-05-10T03:37:03.609Z,99.90
2019-05-10T03:39:32.969Z,99.90
2019-05-10T03:42:02.267Z,99.90
2019-05-10T03:44:31.592Z,99.90
2019-05-10T03:47:01.014Z,99.90
2019-05-10T03:49:30.287Z,99.90
2019-05-10T03:51:59.603Z,99.90
2019-05-10T03:54:28.970Z,99.90
2019-05-10T03:57:12.130Z,99.90
2019-05-10T03:59:29.339Z,99.90
2019-05-10T04:01:58.658Z,99.90
2019-05-10T04:04:28.047Z,99.90
2019-05-10T04:06:57.512Z,99.90
2019-05-10T04:09:26.832Z,99.90
2019-05-10T04:11:56.201Z,99.90
2019-05-10T04:14:25.753Z,99.90
2019-05-10T04:16:55.135Z,99.90
2019-05-10T04:19:24.571Z,99.90
2019-05-10T04:21:53.924Z,99.90
2019-05-10T04:24:23.245Z,99.90
2019-05-10T04:26:52.535Z,99.90
2019-05-10T04:29:22.304Z,99.90
2019-05-10T04:31:51.614Z,99.90
2019-05-10T04:34:20.980Z,99.90
2019-05-10T04:36:50.418Z,99.90
2019-05-10T04:39:21.051Z,99.90
2019-05-10T04:41:53.847Z,99.90
2019-05-10T04:44:23.125Z,99.90
2019-05-10T04:46:52.509Z,99.90
2019-05-10T04:49:22.058Z,99.90
2019-05-10T04:51:51.572Z,99.90
2019-05-10T04:54:20.985Z,99.90
2019-05-10T04:56:50.403Z,99.90
2019-05-10T04:59:19.669Z,99.90
2019-05-10T05:01:49.018Z,99.90
2019-05-10T05:04:27.879Z,99.90
2019-05-10T05:06:58.998Z,99.90
2019-05-10T05:09:39.592Z,99.90
2019-05-10T05:12:13.673Z,99.90
2019-05-10T05:14:42.938Z,99.90
2019-05-10T05:17:16.574Z,99.90
2019-05-10T05:19:50.443Z,99.90
2019-05-10T05:22:52.203Z,99.90
2019-05-10T05:25:26.297Z,99.90
2019-05-10T05:28:07.300Z,99.90
2019-05-10T05:30:28.235Z,99.90
2019-05-10T05:32:57.599Z,99.90
2019-05-10T05:35:26.886Z,99.90
2019-05-10T05:37:56.229Z,99.90
2019-05-10T05:40:27.946Z,99.90
2019-05-10T05:42:57.494Z,99.90
2019-05-10T05:45:28.238Z,99.90
2019-05-10T05:47:57.876Z,99.90
2019-05-10T05:50:27.102Z,99.90
2019-05-10T05:52:56.597Z,99.90
2019-05-10T05:55:30.535Z,99.90
2019-05-10T05:57:59.133Z,99.90
2019-05-10T06:00:27.922Z,99.90
2019-05-10T06:02:57.207Z,99.90
2019-05-10T06:05:33.991Z,99.90
2019-05-10T06:07:57.500Z,99.90
2019-05-10T06:10:26.892Z,99.90
2019-05-10T06:12:56.290Z,99.90
2019-05-10T06:15:29.253Z,99.90
2019-05-10T06:17:57.660Z,99.90
2019-05-10T06:20:27.128Z,99.90
2019-05-10T06:23:06.430Z,99.90
2019-05-10T06:25:38.714Z,99.90
2019-05-10T06:27:58.568Z,99.90
2019-05-10T06:30:27.964Z,99.90
2019-05-10T06:33:00.775Z,99.90
2019-05-10T06:35:28.316Z,99.90
2019-05-10T06:37:57.902Z,99.90
2019-05-10T06:40:35.778Z,99.90
2019-05-10T06:42:58.635Z,99.90
2019-05-10T06:45:29.458Z,99.90
2019-05-10T06:47:58.671Z,99.90
2019-05-10T06:50:29.840Z,99.90
2019-05-10T06:53:00.507Z,99.90
2019-05-10T06:55:30.300Z,99.90
2019-05-10T06:58:00.921Z,99.90
2019-05-10T07:00:30.265Z,99.90
2019-05-10T07:02:59.878Z,99.90
2019-05-10T07:05:29.168Z,99.90
2019-05-10T07:08:12.860Z,99.90
2019-05-10T07:10:33.763Z,99.90
2019-05-10T07:13:03.421Z,99.90
2019-05-10T07:15:35.957Z,99.90
2019-05-10T07:18:03.456Z,99.90
2019-05-10T07:20:32.825Z,99.90
2019-05-10T07:23:06.285Z,99.90
2019-05-10T07:25:37.754Z,99.90
2019-05-10T07:28:09.324Z,99.90
2019-05-10T07:30:36.453Z,99.90
2019-05-10T07:33:05.964Z,99.90
2019-05-10T07:35:36.840Z,99.90
2019-05-10T07:38:06.507Z,99.90
2019-05-10T07:40:35.917Z,99.90
2019-05-10T07:43:05.341Z,99.90
2019-05-10T07:45:34.943Z,99.90
2019-05-10T07:48:08.247Z,99.90
2019-05-10T07:50:35.362Z,99.90
2019-05-10T07:53:06.961Z,99.90
2019-05-10T07:55:36.367Z,99.90
2019-05-10T07:58:07.112Z,99.90
2019-05-10T08:00:38.145Z,99.90
2019-05-10T08:03:15.999Z,99.90
2019-05-10T08:05:40.510Z,99.90
2019-05-10T08:08:09.910Z,99.90
2019-05-10T08:10:39.478Z,99.90
2019-05-10T08:13:15.431Z,99.90
2019-05-10T08:15:42.901Z,99.90
2019-05-10T08:18:15.304Z,99.90
2019-05-10T08:20:50.449Z,99.90
2019-05-10T08:23:17.951Z,99.90
2019-05-10T08:25:47.214Z,99.90
2019-05-10T08:28:17.117Z,99.90
2019-05-10T08:30:53.595Z,99.90
2019-05-10T08:33:18.483Z,99.90
2019-05-10T08:35:52.485Z,99.90
2019-05-10T08:38:19.074Z,99.90
2019-05-10T08:40:48.869Z,99.90
2019-05-10T08:43:18.305Z,99.90
2019-05-10T08:45:49.447Z,99.90
2019-05-10T08:48:18.629Z,99.90
2019-05-10T08:50:54.292Z,99.90
2019-05-10T08:53:22.939Z,99.90
2019-05-10T08:55:52.437Z,99.90
2019-05-10T08:58:31.702Z,99.90
2019-05-10T09:01:12.056Z,99.90
2019-05-10T09:03:28.420Z,99.90
2019-05-10T09:06:05.229Z,99.90
2019-05-10T09:08:31.709Z,99.90
2019-05-10T09:11:04.127Z,99.90
2019-05-10T09:13:37.204Z,99.90
2019-05-10T09:16:02.538Z,99.90
2019-05-10T09:18:33.094Z,99.90
2019-05-10T09:21:08.615Z,99.90
2019-05-10T09:23:33.689Z,99.90
2019-05-10T09:26:10.602Z,99.90
2019-05-10T09:28:34.024Z,99.90
2019-05-10T09:31:17.361Z,99.90
2019-05-10T09:33:34.270Z,99.90
2019-05-10T09:36:03.582Z,99.90
2019-05-10T09:38:37.129Z,99.90
2019-05-10T09:41:04.039Z,99.90
2019-05-10T09:43:33.406Z,99.90
2019-05-10T09:46:02.966Z,99.90
2019-05-10T09:48:33.319Z,99.90
2019-05-10T09:51:04.313Z,99.90
2019-05-10T09:53:34.012Z,98.90
2019-05-10T09:56:03.496Z,99.30
2019-05-10T09:58:32.914Z,98.60
2019-05-10T10:01:13.724Z,99.00
2019-05-10T10:03:39.783Z,99.00
2019-05-10T10:06:07.707Z,98.00
2019-05-10T10:08:35.425Z,98.00
2019-05-10T10:11:14.073Z,96.60
2019-05-10T10:13:43.338Z,95.50
2019-05-10T10:16:14.363Z,96.00
2019-05-10T10:18:40.703Z,97.10
2019-05-10T10:21:10.991Z,97.00
2019-05-10T10:23:41.029Z,97.00
2019-05-10T10:26:12.680Z,96.60
2019-05-10T10:28:41.512Z,96.50
2019-05-10T10:31:25.074Z,96.30
2019-05-10T10:33:43.080Z,95.80
2019-05-10T10:36:12.620Z,96.20
2019-05-10T10:38:45.438Z,96.00
2019-05-10T10:41:19.178Z,95.20
2019-05-10T10:43:44.393Z,94.70
2019-05-10T10:46:16.678Z,95.20
2019-05-10T10:48:49.270Z,95.50
2019-05-10T10:51:18.047Z,94.40
2019-05-10T10:53:47.035Z,95.30
2019-05-10T10:56:17.622Z,95.90
2019-05-10T10:58:49.563Z,94.90
2019-05-10T11:01:24.684Z,94.50
2019-05-10T11:03:49.251Z,94.90
2019-05-10T11:06:18.729Z,94.40
2019-05-10T11:08:48.119Z,94.20
2019-05-10T11:11:17.523Z,95.00
2019-05-10T11:13:57.332Z,93.70
2019-05-10T11:16:17.828Z,94.00
2019-05-10T11:18:47.113Z,93.70
2019-05-10T11:21:16.431Z,93.80
2019-05-10T11:23:45.704Z,93.60
2019-05-10T11:26:14.992Z,93.30
2019-05-10T11:28:44.462Z,93.80
2019-05-10T11:31:14.011Z,94.20
2019-05-10T11:33:47.552Z,93.10
2019-05-10T11:36:14.458Z,93.90
2019-05-10T11:38:47.026Z,93.60
2019-05-10T11:41:21.156Z,93.40
2019-05-10T11:43:45.852Z,94.10
2019-05-10T11:46:15.263Z,94.70
2019-05-10T11:48:45.060Z,95.60
2019-05-10T11:51:17.429Z,96.10
2019-05-10T11:53:48.835Z,97.00
2019-05-10T11:56:24.003Z,97.60
2019-05-10T11:58:55.032Z,98.30
2019-05-10T12:01:22.217Z,98.40
2019-05-10T12:03:51.350Z,98.30
2019-05-10T12:06:21.396Z,98.20
2019-05-10T12:08:56.983Z,97.30
2019-05-10T12:11:33.037Z,97.30
2019-05-10T12:13:57.434Z,97.30
2019-05-10T12:16:27.505Z,98.10
2019-05-10T12:19:15.103Z,97.60
2019-05-10T12:21:28.354Z,97.40
2019-05-10T12:24:10.320Z,97.00
2019-05-10T12:29:11.560Z,95.20
2019-05-10T12:31:31.191Z,95.50
2019-05-10T12:34:08.880Z,95.80
2019-05-10T12:36:31.713Z,95.50
2019-05-10T12:39:01.754Z,95.60
2019-05-10T12:41:31.687Z,95.20
2019-05-10T12:44:05.751Z,95.30
2019-05-10T12:46:32.140Z,95.60
2019-05-10T12:49:04.842Z,95.60
2019-05-10T12:51:32.873Z,95.20
2019-05-10T12:54:02.356Z,95.10
2019-05-10T12:56:34.858Z,95.40
2019-05-10T12:59:02.773Z,95.40
2019-05-10T13:01:33.207Z,95.90
2019-05-10T13:04:13.961Z,95.60
2019-05-10T13:06:36.418Z,96.70
2019-05-10T13:09:07.584Z,96.70
2019-05-10T13:11:36.976Z,94.00
2019-05-10T13:14:09.532Z,94.30
2019-05-10T13:16:37.416Z,95.20
2019-05-10T13:19:07.098Z,96.60
2019-05-10T13:21:36.666Z,97.50
2019-05-10T13:24:06.138Z,98.30
2019-05-10T13:26:35.578Z,97.30
2019-05-10T13:29:07.895Z,98.20
2019-05-10T13:31:41.748Z,97.80
2019-05-10T13:34:08.021Z,96.70
2019-05-10T13:36:38.945Z,97.30
2019-05-10T13:39:08.690Z,97.50
2019-05-10T13:41:38.206Z,97.40
2019-05-10T13:44:07.643Z,97.40
2019-05-10T13:46:37.032Z,97.30
2019-05-10T13:49:09.219Z,98.00
2019-05-10T13:51:38.506Z,97.40
2019-05-10T13:54:07.978Z,97.10
2019-05-10T13:56:37.455Z,96.20
2019-05-10T13:59:15.514Z,96.50
2019-05-10T14:01:37.936Z,97.80
2019-05-10T14:04:07.292Z,98.10
2019-05-10T14:06:36.699Z,98.00
2019-05-10T14:09:07.863Z,98.10
2019-05-10T14:11:40.510Z,98.30
2019-05-10T14:14:14.432Z,98.20
2019-05-10T14:16:41.854Z,97.90
2019-05-10T14:19:16.042Z,97.90
2019-05-10T14:21:42.398Z,98.40
2019-05-10T14:24:15.314Z,99.00
2019-05-10T14:26:43.155Z,99.30
2019-05-10T14:29:12.658Z,99.50
2019-05-10T14:31:41.917Z,99.90
2019-05-10T14:34:15.577Z,99.90
2019-05-10T14:36:43.565Z,99.90
2019-05-10T14:39:13.066Z,99.90
2019-05-10T14:41:45.253Z,99.90
2019-05-10T14:44:13.473Z,99.90
2019-05-10T14:46:43.101Z,99.90
2019-05-10T14:49:12.554Z,99.90
2019-05-10T14:51:57.861Z,99.90
2019-05-10T14:54:12.947Z,99.90
2019-05-10T14:56:42.334Z,99.90
2019-05-10T14:59:11.943Z,99.90
2019-05-10T15:01:43.094Z,99.90
2019-05-10T15:04:17.897Z,99.90
2019-05-10T15:06:44.009Z,99.90
2019-05-10T15:09:21.745Z,99.90
2019-05-10T15:11:44.570Z,99.90
2019-05-10T15:14:13.973Z,99.90
2019-05-10T15:16:43.329Z,99.90
2019-05-10T15:19:12.616Z,99.90
2019-05-10T15:21:42.039Z,99.90
2019-05-10T15:24:11.521Z,99.90
2019-05-10T15:26:44.045Z,99.90
2019-05-10T15:29:22.355Z,99.90
2019-05-10T15:31:45.709Z,99.90
2019-05-10T15:34:15.175Z,99.90
2019-05-10T15:36:44.551Z,99.90
2019-05-10T15:39:13.844Z,99.90
2019-05-10T15:41:43.933Z,99.90
2019-05-10T15:44:13.302Z,99.90
2019-05-10T15:46:42.714Z,99.90
2019-05-10T15:49:13.460Z,99.90
2019-05-10T15:51:48.950Z,99.90
2019-05-10T15:54:16.619Z,99.90
2019-05-10T15:56:46.043Z,99.90
2019-05-10T15:59:19.277Z,99.90
2019-05-10T16:01:46.790Z,99.90
2019-05-10T16:04:16.343Z,99.90
2019-05-10T16:06:47.219Z,99.90
2019-05-10T16:09:18.959Z,99.90
2019-05-10T16:11:48.071Z,99.90
2019-05-10T16:14:17.593Z,99.90
2019-05-10T16:16:46.961Z,99.90
2019-05-10T16:19:18.692Z,99.90
2019-05-10T16:21:52.063Z,99.90
2019-05-10T16:24:25.189Z,99.90
2019-05-10T16:26:49.632Z,99.90
2019-05-10T16:29:19.048Z,99.90
2019-05-10T16:31:48.519Z,99.90
2019-05-10T16:34:17.973Z,99.90
2019-05-10T16:36:47.618Z,99.90
2019-05-10T16:39:17.060Z,99.90
2019-05-10T16:41:46.534Z,99.90
2019-05-10T16:44:15.805Z,99.90
2019-05-10T16:46:45.103Z,99.90
2019-05-10T16:49:15.576Z,99.90
2019-05-10T16:51:47.560Z,99.90
2019-05-10T16:54:24.233Z,99.90
2019-05-10T16:56:51.768Z,99.90
2019-05-10T16:59:18.427Z,99.90
2019-05-10T17:01:47.760Z,99.90
2019-05-10T17:04:17.211Z,99.90
2019-05-10T17:06:46.598Z,99.90
2019-05-10T17:09:18.106Z,99.90
2019-05-10T17:11:48.627Z,99.90
2019-05-10T17:14:19.672Z,99.90
2019-05-10T17:16:58.415Z,99.90
2019-05-10T17:19:27.814Z,99.90
2019-05-10T17:21:54.353Z,99.90
2019-05-10T17:24:25.415Z,99.90
2019-05-10T17:26:54.752Z,99.90
2019-05-10T17:29:24.273Z,99.90
2019-05-10T17:31:53.717Z,99.90
2019-05-10T17:34:29.056Z,99.90
2019-05-10T17:36:57.942Z,99.90
2019-05-10T17:39:32.341Z,99.90
2019-05-10T17:42:03.110Z,99.90
2019-05-10T17:44:32.767Z,99.90
2019-05-10T17:47:02.121Z,99.90
2019-05-10T17:49:31.554Z,99.90
2019-05-10T17:52:01.019Z,99.90
2019-05-10T17:54:33.855Z,99.90
2019-05-10T17:57:01.317Z,99.90
2019-05-10T17:59:31.059Z,99.90
2019-05-10T18:02:00.622Z,99.90
2019-05-10T18:04:31.408Z,99.90
2019-05-10T18:07:00.758Z,99.90
2019-05-10T18:09:30.121Z,99.90
2019-05-10T18:11:59.562Z,99.90
2019-05-10T18:14:29.729Z,99.90
2019-05-10T18:16:59.206Z,99.90
2019-05-10T18:19:28.961Z,99.90
2019-05-10T18:22:00.841Z,99.90
2019-05-10T18:24:30.283Z,99.90
2019-05-10T18:27:00.705Z,99.90
2019-05-10T18:29:30.135Z,99.90
2019-05-10T18:31:59.354Z,99.90
2019-05-10T18:34:33.063Z,99.90
2019-05-10T18:36:59.808Z,99.90
2019-05-10T18:39:29.509Z,99.90
2019-05-10T18:41:58.822Z,99.90
2019-05-10T18:44:28.326Z,99.90
2019-05-10T18:46:57.711Z,99.90
2019-05-10T18:49:27.353Z,99.90
2019-05-10T18:52:03.908Z,99.90
2019-05-10T18:54:27.886Z,99.90
2019-05-10T18:56:57.494Z,99.90
2019-05-10T18:59:26.951Z,99.90
2019-05-10T19:01:56.415Z,99.90
2019-05-10T19:04:26.929Z,99.90
2019-05-10T19:07:09.278Z,99.90
2019-05-10T19:09:28.361Z,99.90
2019-05-10T19:11:57.916Z,99.90
2019-05-10T19:14:29.539Z,99.90
2019-05-10T19:16:58.433Z,99.90
2019-05-10T19:19:35.352Z,99.90
2019-05-10T19:22:03.006Z,99.90
2019-05-10T19:24:32.236Z,99.90
2019-05-10T19:27:07.097Z,99.90
2019-05-10T19:29:32.639Z,99.90
2019-05-10T19:32:02.117Z,99.90
2019-05-10T19:34:31.594Z,99.90
2019-05-10T19:37:00.940Z,99.90
2019-05-10T19:39:31.374Z,99.90
2019-05-10T19:42:04.021Z,99.90
2019-05-10T19:44:34.555Z,99.90
2019-05-10T19:47:03.237Z,99.90
2019-05-10T19:49:32.616Z,99.90
2019-05-10T19:52:01.968Z,99.90
2019-05-10T19:54:31.183Z,99.90
2019-05-10T19:57:00.651Z,99.90
2019-05-10T19:59:30.075Z,99.90
2019-05-10T20:01:59.475Z,99.90
2019-05-10T20:04:28.875Z,99.90
2019-05-10T20:06:58.295Z,99.90
2019-05-10T20:09:28.152Z,99.90
2019-05-10T20:11:57.554Z,99.90
2019-05-10T20:14:26.898Z,99.90
2019-05-10T20:16:56.354Z,99.90
2019-05-10T20:19:27.848Z,99.90
2019-05-10T20:21:57.297Z,99.90
2019-05-10T20:24:26.822Z,99.90
2019-05-10T20:26:56.341Z,99.90
2019-05-10T20:29:26.017Z,99.90
2019-05-10T20:31:55.742Z,99.90
2019-05-10T20:34:25.289Z,99.90
2019-05-10T20:36:54.863Z,99.90
2019-05-10T20:39:24.474Z,99.90
2019-05-10T20:41:54.669Z,99.90
2019-05-10T20:44:28.143Z,99.90
2019-05-10T20:46:57.368Z,99.90
2019-05-10T20:49:26.915Z,99.90
2019-05-10T20:51:56.494Z,99.90
2019-05-10T20:54:25.926Z,99.90
2019-05-10T20:56:55.475Z,99.90
2019-05-10T20:59:24.831Z,99.90
2019-05-10T21:01:54.292Z,99.90
2019-05-10T21:04:24.726Z,99.90
2019-05-10T21:06:54.402Z,99.90
2019-05-10T21:09:23.836Z,99.90
2019-05-10T21:11:53.325Z,99.90
2019-05-10T21:14:25.382Z,99.90
2019-05-10T21:16:54.847Z,99.90
2019-05-10T21:19:24.357Z,99.90
2019-05-10T21:21:53.772Z,99.90
2019-05-10T21:24:24.239Z,99.90
2019-05-10T21:26:54.051Z,99.90
2019-05-10T21:29:23.453Z,99.90
2019-05-10T21:31:52.944Z,99.90
2019-05-10T21:34:22.505Z,99.90
2019-05-10T21:36:51.988Z,99.90
2019-05-10T21:39:21.370Z,99.90
2019-05-10T21:41:51.005Z,99.90
2019-05-10T21:44:20.584Z,99.90
2019-05-10T21:46:53.413Z,99.90
2019-05-10T21:49:21.149Z,99.90
2019-05-10T21:51:50.567Z,99.90
2019-05-10T21:54:20.131Z,99.90
2019-05-10T21:56:49.521Z,99.90
2019-05-10T21:59:18.883Z,99.90
2019-05-10T22:01:48.377Z,99.90
2019-05-10T22:04:18.062Z,99.90
2019-05-10T22:06:47.607Z,99.90
2019-05-10T22:09:17.297Z,99.90
2019-05-10T22:11:46.674Z,99.90
2019-05-10T22:14:16.163Z,99.90
2019-05-10T22:16:47.508Z,99.90
2019-05-10T22:19:16.943Z,99.90
2019-05-10T22:21:46.331Z,99.90
2019-05-10T22:24:15.680Z,99.90
2019-05-10T22:26:45.242Z,99.90
2019-05-10T22:29:14.793Z,99.90
2019-05-10T22:31:44.262Z,99.90
2019-05-10T22:34:13.747Z,99.90
2019-05-10T22:36:43.213Z,99.90
2019-05-10T22:39:12.676Z,99.90
2019-05-10T22:41:42.287Z,99.90
2019-05-10T22:44:11.724Z,99.90
2019-05-10T22:46:41.295Z,99.90
2019-05-10T22:49:10.936Z,99.90
2019-05-10T22:51:40.358Z,99.90
2019-05-10T22:54:09.967Z,99.90
2019-05-10T22:56:39.439Z,99.90
2019-05-10T22:59:08.858Z,99.90
2019-05-10T23:01:38.263Z,99.90
2019-05-10T23:04:07.715Z,99.90
2019-05-10T23:06:37.103Z,99.90
2019-05-10T23:09:23.595Z,99.90
2019-05-10T23:11:39.827Z,99.90
2019-05-10T23:14:09.173Z,99.90
2019-05-10T23:16:38.618Z,99.90
2019-05-10T23:19:08.144Z,99.90
2019-05-10T23:21:37.459Z,99.90
2019-05-10T23:24:06.831Z,99.90
2019-05-10T23:26:36.387Z,99.90
2019-05-10T23:29:05.879Z,99.90
2019-05-10T23:31:35.697Z,99.90
2019-05-10T23:34:05.291Z,99.90
2019-05-10T23:36:34.711Z,99.90
2019-05-10T23:39:06.649Z,99.90
2019-05-10T23:41:36.100Z,99.90
2019-05-10T23:44:05.520Z,99.90
2019-05-10T23:46:34.880Z,99.90
2019-05-10T23:49:04.364Z,99.90
2019-05-10T23:51:33.640Z,99.90
2019-05-10T23:54:02.936Z,99.90
2019-05-10T23:56:32.359Z,99.90
2019-05-10T23:59:01.770Z,99.90
